sensor_id;sensor_type;location;lat;lon;timestamp;temperature;humidity
65396;HTU21D;52004;45.136;39.010;2022-07-23T00:00:48;19.01;67.33
65396;HTU21D;52004;45.136;39.010;2022-07-23T00:03:14;18.91;67.46
65396;HTU21D;52004;45.136;39.010;2022-07-23T00:05:40;18.80;67.62
65396;HTU21D;52004;45.136;39.010;2022-07-23T00:08:06;18.72;67.76
65396;HTU21D;52004;45.136;39.010;2022-07-23T00:10:33;18.69;67.83
65396;HTU21D;52004;45.136;39.010;2022-07-23T00:12:58;18.70;67.80
65396;HTU21D;52004;45.136;39.010;2022-07-23T00:15:25;18.68;67.77
65396;HTU21D;52004;45.136;39.010;2022-07-23T00:17:51;18.68;67.77
65396;HTU21D;52004;45.136;39.010;2022-07-23T00:20:17;18.69;67.75
65396;HTU21D;52004;45.136;39.010;2022-07-23T00:22:49;18.69;67.74
65396;HTU21D;52004;45.136;39.010;2022-07-23T00:25:15;18.70;67.73
65396;HTU21D;52004;45.136;39.010;2022-07-23T00:27:41;18.71;67.71
65396;HTU21D;52004;45.136;39.010;2022-07-23T00:30:07;18.71;67.72
65396;HTU21D;52004;45.136;39.010;2022-07-23T00:32:44;18.71;67.76
65396;HTU21D;52004;45.136;39.010;2022-07-23T00:35:10;18.71;67.75
65396;HTU21D;52004;45.136;39.010;2022-07-23T00:37:36;18.70;67.79
65396;HTU21D;52004;45.136;39.010;2022-07-23T00:40:02;18.68;67.88
65396;HTU21D;52004;45.136;39.010;2022-07-23T00:42:30;18.67;67.92
65396;HTU21D;52004;45.136;39.010;2022-07-23T00:44:56;18.66;67.96
65396;HTU21D;52004;45.136;39.010;2022-07-23T00:47:22;18.65;67.93
65396;HTU21D;52004;45.136;39.010;2022-07-23T00:49:48;18.65;67.96
65396;HTU21D;52004;45.136;39.010;2022-07-23T00:52:14;18.64;67.97
65396;HTU21D;52004;45.136;39.010;2022-07-23T00:54:40;18.64;67.97
65396;HTU21D;52004;45.136;39.010;2022-07-23T00:57:06;18.64;67.97
65396;HTU21D;52004;45.136;39.010;2022-07-23T00:59:32;18.63;67.98
65396;HTU21D;52004;45.136;39.010;2022-07-23T01:01:57;18.63;68.01
65396;HTU21D;52004;45.136;39.010;2022-07-23T01:04:24;18.63;68.01
65396;HTU21D;52004;45.136;39.010;2022-07-23T01:06:49;18.63;68.04
65396;HTU21D;52004;45.136;39.010;2022-07-23T01:09:15;18.65;68.06
65396;HTU21D;52004;45.136;39.010;2022-07-23T01:11:41;18.66;68.07
65396;HTU21D;52004;45.136;39.010;2022-07-23T01:14:09;18.66;68.08
65396;HTU21D;52004;45.136;39.010;2022-07-23T01:16:35;18.68;68.10
65396;HTU21D;52004;45.136;39.010;2022-07-23T01:19:02;18.67;68.11
65396;HTU21D;52004;45.136;39.010;2022-07-23T01:21:30;18.66;68.11
65396;HTU21D;52004;45.136;39.010;2022-07-23T01:23:56;18.65;68.18
65396;HTU21D;52004;45.136;39.010;2022-07-23T01:26:22;18.67;68.20
65396;HTU21D;52004;45.136;39.010;2022-07-23T01:28:49;18.67;68.23
65396;HTU21D;52004;45.136;39.010;2022-07-23T01:31:15;18.67;68.27
65396;HTU21D;52004;45.136;39.010;2022-07-23T01:33:41;18.68;68.27
65396;HTU21D;52004;45.136;39.010;2022-07-23T01:36:08;18.67;68.35
65396;HTU21D;52004;45.136;39.010;2022-07-23T01:38:34;18.69;68.39
65396;HTU21D;52004;45.136;39.010;2022-07-23T01:41:00;18.69;68.53
65396;HTU21D;52004;45.136;39.010;2022-07-23T01:43:30;18.69;68.51
65396;HTU21D;52004;45.136;39.010;2022-07-23T01:45:56;18.71;68.54
65396;HTU21D;52004;45.136;39.010;2022-07-23T01:48:24;18.70;68.64
65396;HTU21D;52004;45.136;39.010;2022-07-23T01:51:19;18.71;68.63
65396;HTU21D;52004;45.136;39.010;2022-07-23T01:53:55;18.73;68.67
65396;HTU21D;52004;45.136;39.010;2022-07-23T01:56:21;18.73;68.77
65396;HTU21D;52004;45.136;39.010;2022-07-23T01:58:48;18.73;68.80
65396;HTU21D;52004;45.136;39.010;2022-07-23T02:01:14;18.74;68.86
65396;HTU21D;52004;45.136;39.010;2022-07-23T02:03:40;18.76;68.95
65396;HTU21D;52004;45.136;39.010;2022-07-23T02:06:06;18.78;68.93
65396;HTU21D;52004;45.136;39.010;2022-07-23T02:08:32;18.79;68.98
65396;HTU21D;52004;45.136;39.010;2022-07-23T02:11:00;18.82;68.94
65396;HTU21D;52004;45.136;39.010;2022-07-23T02:13:26;18.83;68.97
65396;HTU21D;52004;45.136;39.010;2022-07-23T02:15:54;18.83;69.04
65396;HTU21D;52004;45.136;39.010;2022-07-23T02:18:20;18.83;68.99
65396;HTU21D;52004;45.136;39.010;2022-07-23T02:20:46;18.84;69.00
65396;HTU21D;52004;45.136;39.010;2022-07-23T02:23:12;18.86;69.00
65396;HTU21D;52004;45.136;39.010;2022-07-23T02:25:38;18.85;69.01
65396;HTU21D;52004;45.136;39.010;2022-07-23T02:28:04;18.84;68.99
65396;HTU21D;52004;45.136;39.010;2022-07-23T02:30:30;18.82;69.02
65396;HTU21D;52004;45.136;39.010;2022-07-23T02:32:56;18.84;69.04
65396;HTU21D;52004;45.136;39.010;2022-07-23T02:35:23;18.84;69.00
65396;HTU21D;52004;45.136;39.010;2022-07-23T02:37:49;18.83;69.07
65396;HTU21D;52004;45.136;39.010;2022-07-23T02:40:15;18.83;69.11
65396;HTU21D;52004;45.136;39.010;2022-07-23T02:42:43;18.84;69.12
65396;HTU21D;52004;45.136;39.010;2022-07-23T02:45:09;18.84;69.18
65396;HTU21D;52004;45.136;39.010;2022-07-23T02:59:27;18.97;69.48
65396;HTU21D;52004;45.136;39.010;2022-07-23T03:01:53;19.00;69.46
65396;HTU21D;52004;45.136;39.010;2022-07-23T03:04:19;19.03;69.42
65396;HTU21D;52004;45.136;39.010;2022-07-23T03:06:45;19.08;69.44
65396;HTU21D;52004;45.136;39.010;2022-07-23T03:09:11;19.12;69.53
65396;HTU21D;52004;45.136;39.010;2022-07-23T03:11:38;19.16;69.51
65396;HTU21D;52004;45.136;39.010;2022-07-23T03:14:04;19.22;69.51
65396;HTU21D;52004;45.136;39.010;2022-07-23T03:16:31;19.25;69.63
65396;HTU21D;52004;45.136;39.010;2022-07-23T03:18:57;19.30;69.55
65396;HTU21D;52004;45.136;39.010;2022-07-23T03:21:23;19.33;69.63
65396;HTU21D;52004;45.136;39.010;2022-07-23T03:23:49;19.39;69.58
65396;HTU21D;52004;45.136;39.010;2022-07-23T03:26:15;19.43;69.58
65396;HTU21D;52004;45.136;39.010;2022-07-23T03:28:41;19.47;69.58
65396;HTU21D;52004;45.136;39.010;2022-07-23T03:31:07;19.52;69.63
65396;HTU21D;52004;45.136;39.010;2022-07-23T03:33:33;19.56;69.63
65396;HTU21D;52004;45.136;39.010;2022-07-23T03:35:59;19.60;69.64
65396;HTU21D;52004;45.136;39.010;2022-07-23T03:38:29;19.65;69.62
65396;HTU21D;52004;45.136;39.010;2022-07-23T03:40:55;19.67;69.61
65396;HTU21D;52004;45.136;39.010;2022-07-23T03:43:21;19.72;69.60
65396;HTU21D;52004;45.136;39.010;2022-07-23T03:45:49;19.76;69.63
65396;HTU21D;52004;45.136;39.010;2022-07-23T03:48:15;19.82;69.59
65396;HTU21D;52004;45.136;39.010;2022-07-23T03:50:43;19.85;69.62
65396;HTU21D;52004;45.136;39.010;2022-07-23T03:53:10;19.90;69.64
65396;HTU21D;52004;45.136;39.010;2022-07-23T03:55:36;19.95;69.64
65396;HTU21D;52004;45.136;39.010;2022-07-23T03:58:02;19.99;69.62
65396;HTU21D;52004;45.136;39.010;2022-07-23T04:00:28;20.05;69.58
65396;HTU21D;52004;45.136;39.010;2022-07-23T04:02:54;20.13;69.53
65396;HTU21D;52004;45.136;39.010;2022-07-23T04:05:20;20.17;69.52
65396;HTU21D;52004;45.136;39.010;2022-07-23T04:07:50;20.24;69.46
65396;HTU21D;52004;45.136;39.010;2022-07-23T04:10:16;20.31;69.46
65396;HTU21D;52004;45.136;39.010;2022-07-23T04:12:42;20.35;69.45
65396;HTU21D;52004;45.136;39.010;2022-07-23T04:15:09;20.43;69.39
65396;HTU21D;52004;45.136;39.010;2022-07-23T04:17:35;20.48;69.42
65396;HTU21D;52004;45.136;39.010;2022-07-23T04:20:02;20.54;69.43
65396;HTU21D;52004;45.136;39.010;2022-07-23T04:22:33;20.63;69.42
65396;HTU21D;52004;45.136;39.010;2022-07-23T04:25:00;20.70;69.39
65396;HTU21D;52004;45.136;39.010;2022-07-23T04:27:26;20.77;69.41
65396;HTU21D;52004;45.136;39.010;2022-07-23T04:29:52;20.84;69.40
65396;HTU21D;52004;45.136;39.010;2022-07-23T04:32:17;20.90;69.40
65396;HTU21D;52004;45.136;39.010;2022-07-23T04:34:44;20.99;69.39
65396;HTU21D;52004;45.136;39.010;2022-07-23T04:37:10;21.06;69.36
65396;HTU21D;52004;45.136;39.010;2022-07-23T04:39:36;21.13;69.31
65396;HTU21D;52004;45.136;39.010;2022-07-23T04:42:02;21.18;69.29
65396;HTU21D;52004;45.136;39.010;2022-07-23T04:44:30;21.23;69.30
65396;HTU21D;52004;45.136;39.010;2022-07-23T04:46:56;21.30;69.33
65396;HTU21D;52004;45.136;39.010;2022-07-23T04:49:23;21.37;69.37
65396;HTU21D;52004;45.136;39.010;2022-07-23T04:51:49;21.47;69.42
65396;HTU21D;52004;45.136;39.010;2022-07-23T04:54:15;21.55;69.37
65396;HTU21D;52004;45.136;39.010;2022-07-23T04:56:43;21.66;69.34
65396;HTU21D;52004;45.136;39.010;2022-07-23T04:59:09;21.73;69.29
65396;HTU21D;52004;45.136;39.010;2022-07-23T05:01:36;21.80;69.23
65396;HTU21D;52004;45.136;39.010;2022-07-23T05:04:02;21.87;69.18
65396;HTU21D;52004;45.136;39.010;2022-07-23T05:06:32;21.95;69.14
65396;HTU21D;52004;45.136;39.010;2022-07-23T05:08:58;21.99;69.04
65396;HTU21D;52004;45.136;39.010;2022-07-23T05:11:24;0.00;69.00
65396;HTU21D;52004;45.136;39.010;2022-07-23T05:13:50;22.10;69.07
65396;HTU21D;52004;45.136;39.010;2022-07-23T05:16:19;22.18;69.04
65396;HTU21D;52004;45.136;39.010;2022-07-23T05:18:45;22.25;69.03
65396;HTU21D;52004;45.136;39.010;2022-07-23T05:21:11;22.32;68.93
65396;HTU21D;52004;45.136;39.010;2022-07-23T05:23:37;22.36;68.90
65396;HTU21D;52004;45.136;39.010;2022-07-23T05:26:04;22.40;68.92
65396;HTU21D;52004;45.136;39.010;2022-07-23T05:28:31;22.46;68.74
65396;HTU21D;52004;45.136;39.010;2022-07-23T05:30:57;22.47;68.74
65396;HTU21D;52004;45.136;39.010;2022-07-23T05:33:23;22.54;68.79
65396;HTU21D;52004;45.136;39.010;2022-07-23T05:35:49;0.00;68.81
65396;HTU21D;52004;45.136;39.010;2022-07-23T05:38:36;22.65;68.65
65396;HTU21D;52004;45.136;39.010;2022-07-23T05:41:02;22.66;68.55
65396;HTU21D;52004;45.136;39.010;2022-07-23T05:43:29;0.00;68.42
65396;HTU21D;52004;45.136;39.010;2022-07-23T05:45:57;22.61;68.33
65396;HTU21D;52004;45.136;39.010;2022-07-23T05:48:24;0.00;68.25
65396;HTU21D;52004;45.136;39.010;2022-07-23T05:51:22;22.56;68.36
65396;HTU21D;52004;45.136;39.010;2022-07-23T05:53:49;22.62;68.46
65396;HTU21D;52004;45.136;39.010;2022-07-23T05:56:19;22.66;68.32
65396;HTU21D;52004;45.136;39.010;2022-07-23T05:58:45;22.66;68.25
65396;HTU21D;52004;45.136;39.010;2022-07-23T06:01:12;22.72;68.43
65396;HTU21D;52004;45.136;39.010;2022-07-23T06:03:55;22.84;68.49
65396;HTU21D;52004;45.136;39.010;2022-07-23T06:06:30;22.96;68.48
65396;HTU21D;52004;45.136;39.010;2022-07-23T06:08:56;23.02;68.26
65396;HTU21D;52004;45.136;39.010;2022-07-23T06:11:22;23.07;68.08
65396;HTU21D;52004;45.136;39.010;2022-07-23T06:13:48;23.03;67.99
65396;HTU21D;52004;45.136;39.010;2022-07-23T06:16:14;23.05;68.13
65396;HTU21D;52004;45.136;39.010;2022-07-23T06:18:40;23.12;68.20
65396;HTU21D;52004;45.136;39.010;2022-07-23T06:21:07;23.21;68.08
65396;HTU21D;52004;45.136;39.010;2022-07-23T06:23:33;23.29;68.07
65396;HTU21D;52004;45.136;39.010;2022-07-23T06:25:59;23.38;67.99
65396;HTU21D;52004;45.136;39.010;2022-07-23T06:28:25;0.00;67.94
65396;HTU21D;52004;45.136;39.010;2022-07-23T06:30:51;23.59;67.93
65396;HTU21D;52004;45.136;39.010;2022-07-23T06:33:17;23.68;67.75
65396;HTU21D;52004;45.136;39.010;2022-07-23T06:35:43;23.76;67.69
65396;HTU21D;52004;45.136;39.010;2022-07-23T06:38:09;23.87;67.61
65396;HTU21D;52004;45.136;39.010;2022-07-23T07:44:11;23.77;65.72
65396;HTU21D;52004;45.136;39.010;2022-07-23T07:46:37;23.39;65.98
65396;HTU21D;52004;45.136;39.010;2022-07-23T07:49:03;23.01;66.34
65396;HTU21D;52004;45.136;39.010;2022-07-23T07:51:30;22.84;66.81
65396;HTU21D;52004;45.136;39.010;2022-07-23T07:53:56;22.83;66.96
65396;HTU21D;52004;45.136;39.010;2022-07-23T07:56:21;22.91;67.04
65396;HTU21D;52004;45.136;39.010;2022-07-23T07:58:47;22.98;66.96
65396;HTU21D;52004;45.136;39.010;2022-07-23T08:01:13;0.00;66.98
65396;HTU21D;52004;45.136;39.010;2022-07-23T08:03:39;23.28;66.90
65396;HTU21D;52004;45.136;39.010;2022-07-23T08:06:05;23.46;66.88
65396;HTU21D;52004;45.136;39.010;2022-07-23T08:08:31;23.60;66.70
65396;HTU21D;52004;45.136;39.010;2022-07-23T08:10:57;23.74;66.67
65396;HTU21D;52004;45.136;39.010;2022-07-23T08:13:23;0.00;66.56
65396;HTU21D;52004;45.136;39.010;2022-07-23T08:15:49;23.99;66.65
65396;HTU21D;52004;45.136;39.010;2022-07-23T08:18:15;24.19;66.59
65396;HTU21D;52004;45.136;39.010;2022-07-23T08:20:41;24.33;66.45
65396;HTU21D;52004;45.136;39.010;2022-07-23T08:23:08;24.42;66.17
65396;HTU21D;52004;45.136;39.010;2022-07-23T08:25:35;24.44;66.04
65396;HTU21D;52004;45.136;39.010;2022-07-23T08:28:02;24.49;66.04
65396;HTU21D;52004;45.136;39.010;2022-07-23T08:30:29;24.54;65.82
65396;HTU21D;52004;45.136;39.010;2022-07-23T08:33:05;24.51;65.55
65396;HTU21D;52004;45.136;39.010;2022-07-23T08:35:34;24.47;65.64
65396;HTU21D;52004;45.136;39.010;2022-07-23T08:38:01;24.54;65.63
65396;HTU21D;52004;45.136;39.010;2022-07-23T08:40:29;24.58;65.58
65396;HTU21D;52004;45.136;39.010;2022-07-23T08:42:55;24.68;65.57
65396;HTU21D;52004;45.136;39.010;2022-07-23T08:45:22;24.77;65.46
65396;HTU21D;52004;45.136;39.010;2022-07-23T08:47:49;24.91;65.37
65396;HTU21D;52004;45.136;39.010;2022-07-23T08:50:15;25.02;65.08
65396;HTU21D;52004;45.136;39.010;2022-07-23T08:52:41;25.05;64.94
65396;HTU21D;52004;45.136;39.010;2022-07-23T08:55:07;25.13;64.91
65396;HTU21D;52004;45.136;39.010;2022-07-23T08:57:33;25.20;64.82
65396;HTU21D;52004;45.136;39.010;2022-07-23T08:59:59;25.20;64.50
65396;HTU21D;52004;45.136;39.010;2022-07-23T09:02:25;25.20;64.51
65396;HTU21D;52004;45.136;39.010;2022-07-23T09:04:51;25.25;64.62
65396;HTU21D;52004;45.136;39.010;2022-07-23T09:07:17;25.33;64.44
65396;HTU21D;52004;45.136;39.010;2022-07-23T09:09:43;25.39;64.20
65396;HTU21D;52004;45.136;39.010;2022-07-23T09:12:10;25.45;64.01
65396;HTU21D;52004;45.136;39.010;2022-07-23T09:14:40;25.47;63.90
65396;HTU21D;52004;45.136;39.010;2022-07-23T09:19:35;25.52;63.50
65396;HTU21D;52004;45.136;39.010;2022-07-23T09:38:13;25.89;63.00
65396;HTU21D;52004;45.136;39.010;2022-07-23T09:40:39;25.95;62.89
65396;HTU21D;52004;45.136;39.010;2022-07-23T09:43:05;25.97;62.90
65396;HTU21D;52004;45.136;39.010;2022-07-23T09:45:31;26.04;62.84
65396;HTU21D;52004;45.136;39.010;2022-07-23T09:48:16;26.07;62.76
65396;HTU21D;52004;45.136;39.010;2022-07-23T09:50:43;26.16;62.73
65396;HTU21D;52004;45.136;39.010;2022-07-23T09:53:10;26.23;62.58
65396;HTU21D;52004;45.136;39.010;2022-07-23T09:55:49;26.24;62.27
65396;HTU21D;52004;45.136;39.010;2022-07-23T09:58:15;26.19;62.24
65396;HTU21D;52004;45.136;39.010;2022-07-23T10:00:43;26.19;62.34
65396;HTU21D;52004;45.136;39.010;2022-07-23T10:03:10;26.21;62.26
65396;HTU21D;52004;45.136;39.010;2022-07-23T10:05:39;26.27;62.31
65396;HTU21D;52004;45.136;39.010;2022-07-23T10:08:24;26.35;62.24
65396;HTU21D;52004;45.136;39.010;2022-07-23T10:11:11;26.45;62.09
65396;HTU21D;52004;45.136;39.010;2022-07-23T10:13:49;26.50;61.89
65396;HTU21D;52004;45.136;39.010;2022-07-23T10:16:48;26.56;61.76
65396;HTU21D;52004;45.136;39.010;2022-07-23T10:19:14;26.61;61.67
65396;HTU21D;52004;45.136;39.010;2022-07-23T10:21:41;26.66;61.58
65396;HTU21D;52004;45.136;39.010;2022-07-23T10:26:48;26.58;61.46
65396;HTU21D;52004;45.136;39.010;2022-07-23T10:29:24;26.50;61.26
65396;HTU21D;52004;45.136;39.010;2022-07-23T10:32:04;26.45;61.49
65396;HTU21D;52004;45.136;39.010;2022-07-23T10:34:52;26.42;61.28
65396;HTU21D;52004;45.136;39.010;2022-07-23T10:37:27;26.31;61.18
65396;HTU21D;52004;45.136;39.010;2022-07-23T10:42:38;26.21;61.32
65396;HTU21D;52004;45.136;39.010;2022-07-23T10:45:24;26.23;61.24
65396;HTU21D;52004;45.136;39.010;2022-07-23T10:47:50;26.13;60.96
65396;HTU21D;52004;45.136;39.010;2022-07-23T10:50:26;26.04;61.13
65396;HTU21D;52004;45.136;39.010;2022-07-23T10:57:59;26.34;61.14
65396;HTU21D;52004;45.136;39.010;2022-07-23T11:00:26;26.28;60.68
65396;HTU21D;52004;45.136;39.010;2022-07-23T11:02:53;26.11;60.70
65396;HTU21D;52004;45.136;39.010;2022-07-23T11:05:20;26.03;60.81
65396;HTU21D;52004;45.136;39.010;2022-07-23T11:10:34;25.95;61.02
65396;HTU21D;52004;45.136;39.010;2022-07-23T11:24:06;26.56;60.55
65396;HTU21D;52004;45.136;39.010;2022-07-23T11:31:53;26.64;60.29
65396;HTU21D;52004;45.136;39.010;2022-07-23T11:36:57;26.61;60.16
65396;HTU21D;52004;45.136;39.010;2022-07-23T11:39:24;26.67;60.22
65396;HTU21D;52004;45.136;39.010;2022-07-23T11:41:51;26.73;60.12
65396;HTU21D;52004;45.136;39.010;2022-07-23T11:44:27;26.80;60.18
65396;HTU21D;52004;45.136;39.010;2022-07-23T11:46:56;26.92;60.05
65396;HTU21D;52004;45.136;39.010;2022-07-23T11:49:23;26.92;59.73
65396;HTU21D;52004;45.136;39.010;2022-07-23T11:52:09;26.82;59.53
65396;HTU21D;52004;45.136;39.010;2022-07-23T11:54:36;26.72;59.75
65396;HTU21D;52004;45.136;39.010;2022-07-23T11:57:02;26.75;59.87
65396;HTU21D;52004;45.136;39.010;2022-07-23T11:59:30;26.81;59.96
65396;HTU21D;52004;45.136;39.010;2022-07-23T12:02:00;26.82;59.71
65396;HTU21D;52004;45.136;39.010;2022-07-23T12:04:40;26.76;59.72
65396;HTU21D;52004;45.136;39.010;2022-07-23T12:09:50;26.73;59.82
65396;HTU21D;52004;45.136;39.010;2022-07-23T12:12:16;26.81;59.82
65396;HTU21D;52004;45.136;39.010;2022-07-23T12:14:52;26.87;59.78
65396;HTU21D;52004;45.136;39.010;2022-07-23T12:17:19;26.91;59.48
65396;HTU21D;52004;45.136;39.010;2022-07-23T12:19:46;26.84;59.36
65396;HTU21D;52004;45.136;39.010;2022-07-23T12:22:12;26.76;59.37
65396;HTU21D;52004;45.136;39.010;2022-07-23T12:24:56;26.72;59.50
65396;HTU21D;52004;45.136;39.010;2022-07-23T12:27:22;26.73;59.51
65396;HTU21D;52004;45.136;39.010;2022-07-23T12:29:48;26.77;59.48
65396;HTU21D;52004;45.136;39.010;2022-07-23T12:32:24;26.80;59.38
65396;HTU21D;52004;45.136;39.010;2022-07-23T12:35:01;26.80;59.22
65396;HTU21D;52004;45.136;39.010;2022-07-23T12:37:38;26.71;59.08
65396;HTU21D;52004;45.136;39.010;2022-07-23T12:40:20;26.62;59.00
65396;HTU21D;52004;45.136;39.010;2022-07-23T12:42:50;0.00;58.89
65396;HTU21D;52004;45.136;39.010;2022-07-23T12:45:16;26.34;58.90
65396;HTU21D;52004;45.136;39.010;2022-07-23T12:47:53;0.00;59.21
65396;HTU21D;52004;45.136;39.010;2022-07-23T12:53:23;26.36;59.24
65396;HTU21D;52004;45.136;39.010;2022-07-23T12:55:47;26.38;59.22
65396;HTU21D;52004;45.136;39.010;2022-07-23T12:58:15;26.46;59.16
65396;HTU21D;52004;45.136;39.010;2022-07-23T13:01:15;26.48;59.08
65396;HTU21D;52004;45.136;39.010;2022-07-23T13:03:35;26.49;59.00
65396;HTU21D;52004;45.136;39.010;2022-07-23T13:06:02;26.48;58.90
65396;HTU21D;52004;45.136;39.010;2022-07-23T13:08:29;26.41;58.70
65396;HTU21D;52004;45.136;39.010;2022-07-23T13:10:55;26.33;58.65
65396;HTU21D;52004;45.136;39.010;2022-07-23T13:13:22;26.25;58.75
65396;HTU21D;52004;45.136;39.010;2022-07-23T13:15:48;26.24;58.85
65396;HTU21D;52004;45.136;39.010;2022-07-23T13:18:14;26.27;58.87
65396;HTU21D;52004;45.136;39.010;2022-07-23T13:20:43;26.30;58.76
65396;HTU21D;52004;45.136;39.010;2022-07-23T13:23:09;26.32;58.67
65396;HTU21D;52004;45.136;39.010;2022-07-23T13:25:35;26.33;58.60
65396;HTU21D;52004;45.136;39.010;2022-07-23T13:28:01;26.35;58.65
65396;HTU21D;52004;45.136;39.010;2022-07-23T13:30:27;26.40;58.66
65396;HTU21D;52004;45.136;39.010;2022-07-23T13:32:53;26.41;58.46
65396;HTU21D;52004;45.136;39.010;2022-07-23T13:35:19;26.34;58.30
65396;HTU21D;52004;45.136;39.010;2022-07-23T13:37:45;26.27;58.32
65396;HTU21D;52004;45.136;39.010;2022-07-23T13:40:11;26.19;58.29
65396;HTU21D;52004;45.136;39.010;2022-07-23T13:42:37;26.06;58.34
65396;HTU21D;52004;45.136;39.010;2022-07-23T13:45:04;25.98;58.35
65396;HTU21D;52004;45.136;39.010;2022-07-23T13:47:30;25.89;58.41
65396;HTU21D;52004;45.136;39.010;2022-07-23T13:49:56;25.87;58.51
65396;HTU21D;52004;45.136;39.010;2022-07-23T13:52:22;25.79;58.41
65396;HTU21D;52004;45.136;39.010;2022-07-23T13:54:48;25.73;58.54
65396;HTU21D;52004;45.136;39.010;2022-07-23T13:57:14;25.76;58.67
65396;HTU21D;52004;45.136;39.010;2022-07-23T13:59:40;25.82;58.68
65396;HTU21D;52004;45.136;39.010;2022-07-23T14:02:06;25.89;58.63
65396;HTU21D;52004;45.136;39.010;2022-07-23T14:04:32;25.95;58.59
65396;HTU21D;52004;45.136;39.010;2022-07-23T14:06:59;26.03;58.49
65396;HTU21D;52004;45.136;39.010;2022-07-23T14:09:25;26.07;58.37
65396;HTU21D;52004;45.136;39.010;2022-07-23T14:11:51;26.09;58.36
65396;HTU21D;52004;45.136;39.010;2022-07-23T14:14:17;26.10;58.35
65396;HTU21D;52004;45.136;39.010;2022-07-23T14:16:43;26.15;58.31
65396;HTU21D;52004;45.136;39.010;2022-07-23T14:19:10;26.10;58.09
65396;HTU21D;52004;45.136;39.010;2022-07-23T14:21:36;26.04;58.13
65396;HTU21D;52004;45.136;39.010;2022-07-23T14:24:02;25.97;58.21
65396;HTU21D;52004;45.136;39.010;2022-07-23T14:26:29;25.96;58.23
65396;HTU21D;52004;45.136;39.010;2022-07-23T14:28:55;25.95;58.34
65396;HTU21D;52004;45.136;39.010;2022-07-23T14:31:21;25.99;58.31
65396;HTU21D;52004;45.136;39.010;2022-07-23T14:33:47;26.02;58.30
65396;HTU21D;52004;45.136;39.010;2022-07-23T14:36:13;26.03;58.22
65396;HTU21D;52004;45.136;39.010;2022-07-23T14:38:39;26.01;58.14
65396;HTU21D;52004;45.136;39.010;2022-07-23T14:41:05;25.97;58.11
65396;HTU21D;52004;45.136;39.010;2022-07-23T14:43:33;25.93;58.08
65396;HTU21D;52004;45.136;39.010;2022-07-23T14:45:59;25.87;57.97
65396;HTU21D;52004;45.136;39.010;2022-07-23T14:48:25;25.74;57.94
65396;HTU21D;52004;45.136;39.010;2022-07-23T14:50:51;25.61;58.01
65396;HTU21D;52004;45.136;39.010;2022-07-23T14:53:17;25.47;58.09
65396;HTU21D;52004;45.136;39.010;2022-07-23T14:55:43;25.37;58.20
65396;HTU21D;52004;45.136;39.010;2022-07-23T14:58:09;25.32;58.30
65396;HTU21D;52004;45.136;39.010;2022-07-23T15:00:35;25.31;58.41
65396;HTU21D;52004;45.136;39.010;2022-07-23T15:03:01;25.32;58.43
65396;HTU21D;52004;45.136;39.010;2022-07-23T15:05:27;25.35;58.47
65396;HTU21D;52004;45.136;39.010;2022-07-23T15:07:54;25.42;58.46
65396;HTU21D;52004;45.136;39.010;2022-07-23T15:10:20;25.47;58.42
65396;HTU21D;52004;45.136;39.010;2022-07-23T15:12:46;25.50;58.34
65396;HTU21D;52004;45.136;39.010;2022-07-23T15:15:12;25.47;58.19
65396;HTU21D;52004;45.136;39.010;2022-07-23T15:17:38;25.39;58.13
65396;HTU21D;52004;45.136;39.010;2022-07-23T15:20:04;25.29;58.22
65396;HTU21D;52004;45.136;39.010;2022-07-23T15:22:30;25.22;58.27
65396;HTU21D;52004;45.136;39.010;2022-07-23T15:24:56;25.17;58.32
65396;HTU21D;52004;45.136;39.010;2022-07-23T15:27:22;25.14;58.29
65396;HTU21D;52004;45.136;39.010;2022-07-23T15:29:48;25.08;58.29
65396;HTU21D;52004;45.136;39.010;2022-07-23T15:32:14;25.02;58.28
65396;HTU21D;52004;45.136;39.010;2022-07-23T15:34:40;24.97;58.32
65396;HTU21D;52004;45.136;39.010;2022-07-23T15:37:06;24.92;58.33
65396;HTU21D;52004;45.136;39.010;2022-07-23T15:39:32;24.88;58.34
65396;HTU21D;52004;45.136;39.010;2022-07-23T15:41:59;24.86;58.35
65396;HTU21D;52004;45.136;39.010;2022-07-23T15:44:25;24.82;58.35
65396;HTU21D;52004;45.136;39.010;2022-07-23T15:46:51;24.79;58.34
65396;HTU21D;52004;45.136;39.010;2022-07-23T15:49:17;24.72;58.34
65396;HTU21D;52004;45.136;39.010;2022-07-23T15:51:43;0.00;58.35
65396;HTU21D;52004;45.136;39.010;2022-07-23T15:54:34;24.61;58.34
65396;HTU21D;52004;45.136;39.010;2022-07-23T15:57:00;24.58;58.38
65396;HTU21D;52004;45.136;39.010;2022-07-23T15:59:26;24.54;58.40
65396;HTU21D;52004;45.136;39.010;2022-07-23T16:01:52;24.49;58.41
65396;HTU21D;52004;45.136;39.010;2022-07-23T16:04:18;24.45;58.43
65396;HTU21D;52004;45.136;39.010;2022-07-23T16:06:44;24.41;58.47
65396;HTU21D;52004;45.136;39.010;2022-07-23T16:09:10;24.36;58.50
65396;HTU21D;52004;45.136;39.010;2022-07-23T16:11:36;24.33;58.53
65396;HTU21D;52004;45.136;39.010;2022-07-23T16:14:02;24.32;58.54
65396;HTU21D;52004;45.136;39.010;2022-07-23T16:16:28;24.28;58.54
65396;HTU21D;52004;45.136;39.010;2022-07-23T16:18:54;0.00;58.55
65396;HTU21D;52004;45.136;39.010;2022-07-23T16:21:20;24.20;58.56
65396;HTU21D;52004;45.136;39.010;2022-07-23T16:23:46;24.15;58.56
65396;HTU21D;52004;45.136;39.010;2022-07-23T16:26:12;24.10;58.57
65396;HTU21D;52004;45.136;39.010;2022-07-23T16:28:38;0.00;58.60
65396;HTU21D;52004;45.136;39.010;2022-07-23T16:31:04;23.98;58.61
65396;HTU21D;52004;45.136;39.010;2022-07-23T16:33:30;23.92;58.64
65396;HTU21D;52004;45.136;39.010;2022-07-23T16:35:56;23.85;58.68
65396;HTU21D;52004;45.136;39.010;2022-07-23T16:38:22;0.00;58.75
65396;HTU21D;52004;45.136;39.010;2022-07-23T16:40:50;23.70;58.79
65396;HTU21D;52004;45.136;39.010;2022-07-23T16:43:17;23.62;58.83
65396;HTU21D;52004;45.136;39.010;2022-07-23T16:45:45;23.57;58.85
65396;HTU21D;52004;45.136;39.010;2022-07-23T16:48:11;23.50;58.92
65396;HTU21D;52004;45.136;39.010;2022-07-23T16:50:37;23.44;58.98
65396;HTU21D;52004;45.136;39.010;2022-07-23T16:53:03;23.41;59.02
65396;HTU21D;52004;45.136;39.010;2022-07-23T16:55:29;23.38;59.05
65396;HTU21D;52004;45.136;39.010;2022-07-23T16:57:55;23.32;59.07
65396;HTU21D;52004;45.136;39.010;2022-07-23T17:00:21;23.29;59.09
65396;HTU21D;52004;45.136;39.010;2022-07-23T17:02:47;23.26;59.09
65396;HTU21D;52004;45.136;39.010;2022-07-23T17:05:13;23.20;59.09
65396;HTU21D;52004;45.136;39.010;2022-07-23T17:07:39;23.14;59.11
65396;HTU21D;52004;45.136;39.010;2022-07-23T17:10:05;23.06;59.17
65396;HTU21D;52004;45.136;39.010;2022-07-23T17:12:32;22.99;59.22
65396;HTU21D;52004;45.136;39.010;2022-07-23T17:14:58;22.90;59.30
65396;HTU21D;52004;45.136;39.010;2022-07-23T17:17:24;22.84;59.32